EJU738J LFPO-LFBO
Flight info
| Callsign | EJU738J |
|---|---|
| Flight time | 0h 56m |
| Altitude | 35000 |
| Route | ERIXU DCT ETAMO DCT GUERE DCT NARAK |
| Aircraft | A21N/M-SDE2E3FGHIRWXY/LB1 |
Departure
| Time | 2026-05-07 18:42 |
|---|---|
| Airport | Paris-Orly Airport (LFPO) |
Arrival
| Time | 2026-05-07 19:39 |
|---|---|
| Airport | Toulouse-Blagnac Airport (LFBO) |
| Time | Latitude | Longitude | Altitude | Speed | Heading |
|---|---|---|---|---|---|
| 2026-05-07 18:19 | 48.73076 | 2.35892 | 297 ft | 0 kts | 134° |
| 2026-05-07 18:31 | 48.73084 | 2.35879 | 301 ft | 0 kts | 134° |
| 2026-05-07 18:31 | 48.73100 | 2.35852 | 302 ft | 0 kts | 133° |
| 2026-05-07 18:31 | 48.73119 | 2.35832 | 299 ft | 0 kts | 172° |
| 2026-05-07 18:31 | 48.73137 | 2.35842 | 297 ft | 0 kts | 236° |
| 2026-05-07 18:32 | 48.73149 | 2.35869 | 302 ft | 0 kts | 237° |
| 2026-05-07 18:35 | 48.73149 | 2.35868 | 302 ft | 1 kts | 237° |
| 2026-05-07 18:35 | 48.73142 | 2.35853 | 297 ft | 3 kts | 237° |
| 2026-05-07 18:35 | 48.73124 | 2.35810 | 301 ft | 6 kts | 238° |
| 2026-05-07 18:35 | 48.73094 | 2.35739 | 299 ft | 9 kts | 238° |
| 2026-05-07 18:36 | 48.73055 | 2.35648 | 301 ft | 11 kts | 237° |
| 2026-05-07 18:36 | 48.73005 | 2.35553 | 297 ft | 13 kts | 209° |
| 2026-05-07 18:36 | 48.72918 | 2.35508 | 298 ft | 14 kts | 221° |
| 2026-05-07 18:36 | 48.72900 | 2.35365 | 297 ft | 15 kts | 293° |
| 2026-05-07 18:37 | 48.72988 | 2.35377 | 298 ft | 15 kts | 20° |
| 2026-05-07 18:37 | 48.73088 | 2.35429 | 298 ft | 16 kts | 19° |
| 2026-05-07 18:37 | 48.73172 | 2.35489 | 297 ft | 10 kts | 84° |
| 2026-05-07 18:37 | 48.73125 | 2.35566 | 295 ft | 11 kts | 158° |
| 2026-05-07 18:38 | 48.73071 | 2.35483 | 297 ft | 13 kts | 240° |
| 2026-05-07 18:38 | 48.73007 | 2.35385 | 300 ft | 14 kts | 202° |
| 2026-05-07 18:38 | 48.72909 | 2.35338 | 298 ft | 15 kts | 198° |
| 2026-05-07 18:38 | 48.72804 | 2.35283 | 298 ft | 17 kts | 199° |
| 2026-05-07 18:39 | 48.72689 | 2.35261 | 298 ft | 18 kts | 163° |
| 2026-05-07 18:39 | 48.72567 | 2.35312 | 299 ft | 19 kts | 165° |
| 2026-05-07 18:39 | 48.72437 | 2.35366 | 299 ft | 20 kts | 165° |
| 2026-05-07 18:39 | 48.72329 | 2.35484 | 299 ft | 21 kts | 97° |
| 2026-05-07 18:40 | 48.72280 | 2.35584 | 300 ft | 12 kts | 165° |
| 2026-05-07 18:40 | 48.72198 | 2.35615 | 299 ft | 13 kts | 166° |
| 2026-05-07 18:40 | 48.72106 | 2.35649 | 297 ft | 14 kts | 164° |
| 2026-05-07 18:40 | 48.72029 | 2.35751 | 297 ft | 16 kts | 122° |
| 2026-05-07 18:41 | 48.71972 | 2.35881 | 297 ft | 12 kts | 150° |
| 2026-05-07 18:41 | 48.71964 | 2.35981 | 297 ft | 12 kts | 74° |
| 2026-05-07 18:41 | 48.72015 | 2.36260 | 301 ft | 58 kts | 75° |
| 2026-05-07 18:41 | 48.72184 | 2.37167 | 295 ft | 119 kts | 75° |
| 2026-05-07 18:42 | 48.72450 | 2.38623 | 303 ft | 165 kts | 75° |
| 2026-05-07 18:42 | 48.72763 | 2.40302 | 799 ft | 164 kts | 75° |
| 2026-05-07 18:42 | 48.73085 | 2.41979 | 1388 ft | 168 kts | 75° |
| 2026-05-07 18:42 | 48.73405 | 2.43784 | 1794 ft | 186 kts | 75° |
| 2026-05-07 18:43 | 48.73765 | 2.45770 | 2302 ft | 204 kts | 75° |
| 2026-05-07 18:43 | 48.74153 | 2.47945 | 2807 ft | 225 kts | 79° |
| 2026-05-07 18:43 | 48.74280 | 2.50379 | 3239 ft | 246 kts | 89° |
| 2026-05-07 18:43 | 48.74299 | 2.53046 | 3904 ft | 258 kts | 89° |
| 2026-05-07 18:44 | 48.74321 | 2.55800 | 4721 ft | 263 kts | 90° |
| 2026-05-07 18:44 | 48.73994 | 2.58545 | 5522 ft | 268 kts | 113° |
| 2026-05-07 18:44 | 48.72926 | 2.60868 | 6295 ft | 273 kts | 139° |
| 2026-05-07 18:44 | 48.71314 | 2.62307 | 7067 ft | 273 kts | 164° |
| 2026-05-07 18:45 | 48.69438 | 2.62716 | 7859 ft | 274 kts | 180° |
| 2026-05-07 18:45 | 48.67518 | 2.62751 | 8694 ft | 278 kts | 181° |
| 2026-05-07 18:45 | 48.65587 | 2.62607 | 9523 ft | 280 kts | 192° |
| 2026-05-07 18:45 | 48.63733 | 2.61642 | 10267 ft | 284 kts | 211° |
| 2026-05-07 18:46 | 48.62185 | 2.59673 | 10615 ft | 301 kts | 230° |
| 2026-05-07 18:46 | 48.60831 | 2.57134 | 10919 ft | 321 kts | 233° |
| 2026-05-07 18:46 | 48.59439 | 2.54453 | 11189 ft | 341 kts | 232° |
| 2026-05-07 18:46 | 48.57926 | 2.51607 | 11449 ft | 359 kts | 232° |
| 2026-05-07 18:47 | 48.56313 | 2.48631 | 11894 ft | 370 kts | 231° |
| 2026-05-07 18:47 | 48.54661 | 2.45617 | 12521 ft | 374 kts | 231° |
| 2026-05-07 18:47 | 48.52953 | 2.42614 | 13163 ft | 378 kts | 226° |
| 2026-05-07 18:47 | 48.50896 | 2.40114 | 13756 ft | 382 kts | 214° |
| 2026-05-07 18:48 | 48.48631 | 2.38072 | 14301 ft | 385 kts | 211° |
| 2026-05-07 18:48 | 48.46290 | 2.36044 | 14841 ft | 388 kts | 211° |
| 2026-05-07 18:48 | 48.43936 | 2.33997 | 15351 ft | 391 kts | 211° |
| 2026-05-07 18:48 | 48.41572 | 2.31931 | 15872 ft | 394 kts | 211° |
| 2026-05-07 18:49 | 48.39217 | 2.29865 | 16364 ft | 397 kts | 211° |
| 2026-05-07 18:49 | 48.36826 | 2.27762 | 16855 ft | 399 kts | 212° |
| 2026-05-07 18:49 | 48.34413 | 2.25640 | 17341 ft | 402 kts | 212° |
| 2026-05-07 18:49 | 48.31963 | 2.23591 | 17822 ft | 405 kts | 207° |
| 2026-05-07 18:50 | 48.29298 | 2.22162 | 18252 ft | 410 kts | 195° |
| 2026-05-07 18:50 | 48.26471 | 2.21686 | 18647 ft | 416 kts | 181° |
| 2026-05-07 18:50 | 48.23576 | 2.22135 | 19049 ft | 421 kts | 173° |
| 2026-05-07 18:50 | 48.20670 | 2.22885 | 19461 ft | 423 kts | 172° |
| 2026-05-07 18:51 | 48.17758 | 2.23646 | 19862 ft | 425 kts | 172° |
| 2026-05-07 18:51 | 48.14827 | 2.24388 | 20273 ft | 427 kts | 173° |
| 2026-05-07 18:51 | 48.12372 | 2.24988 | 20608 ft | 428 kts | 173° |
| 2026-05-07 18:51 | 48.09351 | 2.25714 | 21020 ft | 430 kts | 174° |
| 2026-05-07 18:52 | 48.06368 | 2.26116 | 21419 ft | 431 kts | 179° |
| 2026-05-07 18:52 | 48.03369 | 2.26315 | 21826 ft | 433 kts | 180° |
| 2026-05-07 18:52 | 48.00337 | 2.26497 | 22240 ft | 436 kts | 180° |
| 2026-05-07 18:52 | 47.97297 | 2.26683 | 22660 ft | 438 kts | 179° |
| 2026-05-07 18:53 | 47.94237 | 2.26874 | 23107 ft | 440 kts | 179° |
| 2026-05-07 18:53 | 47.91169 | 2.27069 | 23526 ft | 442 kts | 179° |
| 2026-05-07 18:53 | 47.88117 | 2.27265 | 23906 ft | 445 kts | 179° |
| 2026-05-07 18:53 | 47.85008 | 2.27462 | 24273 ft | 447 kts | 179° |
| 2026-05-07 18:54 | 47.81887 | 2.27660 | 24656 ft | 449 kts | 179° |
| 2026-05-07 18:54 | 47.78748 | 2.27859 | 25004 ft | 451 kts | 180° |
| 2026-05-07 18:54 | 47.75604 | 2.28057 | 25370 ft | 453 kts | 179° |
| 2026-05-07 18:54 | 47.72449 | 2.28259 | 25742 ft | 454 kts | 179° |
| 2026-05-07 18:55 | 47.69333 | 2.28457 | 26192 ft | 453 kts | 179° |
| 2026-05-07 18:55 | 47.66188 | 2.28656 | 26649 ft | 451 kts | 180° |
| 2026-05-07 18:55 | 47.63051 | 2.28852 | 27099 ft | 450 kts | 180° |
| 2026-05-07 18:55 | 47.59935 | 2.29048 | 27536 ft | 449 kts | 180° |
| 2026-05-07 18:56 | 47.56797 | 2.29244 | 27974 ft | 448 kts | 180° |
| 2026-05-07 18:56 | 47.53689 | 2.29439 | 28442 ft | 446 kts | 180° |
| 2026-05-07 18:56 | 47.50587 | 2.29633 | 28886 ft | 445 kts | 180° |
| 2026-05-07 18:56 | 47.47498 | 2.29828 | 29329 ft | 443 kts | 180° |
| 2026-05-07 18:57 | 47.44412 | 2.30021 | 29758 ft | 442 kts | 180° |
| 2026-05-07 18:57 | 47.41380 | 2.30211 | 30165 ft | 441 kts | 180° |
| 2026-05-07 18:57 | 47.38311 | 2.30403 | 30505 ft | 441 kts | 180° |
| 2026-05-07 18:57 | 47.35244 | 2.30595 | 30843 ft | 440 kts | 180° |
| 2026-05-07 18:58 | 47.32189 | 2.30784 | 31205 ft | 438 kts | 180° |
| 2026-05-07 18:58 | 47.29145 | 2.30973 | 31545 ft | 437 kts | 181° |
| 2026-05-07 18:58 | 47.26106 | 2.31163 | 31881 ft | 437 kts | 181° |
| 2026-05-07 18:58 | 47.23069 | 2.31351 | 32213 ft | 436 kts | 181° |
| 2026-05-07 18:59 | 47.20038 | 2.31537 | 32542 ft | 435 kts | 181° |
| 2026-05-07 18:59 | 47.17015 | 2.31725 | 32856 ft | 434 kts | 181° |
| 2026-05-07 18:59 | 47.13994 | 2.31913 | 33156 ft | 433 kts | 181° |
| 2026-05-07 18:59 | 47.11012 | 2.32097 | 33482 ft | 432 kts | 181° |
| 2026-05-07 19:00 | 47.08011 | 2.32281 | 33785 ft | 431 kts | 181° |
| 2026-05-07 19:00 | 47.05013 | 2.32466 | 34048 ft | 430 kts | 182° |
| 2026-05-07 19:00 | 47.03029 | 2.32587 | 34188 ft | 430 kts | 181° |
| 2026-05-07 19:00 | 47.00034 | 2.32770 | 34372 ft | 430 kts | 181° |
| 2026-05-07 19:01 | 46.97035 | 2.32954 | 34550 ft | 430 kts | 181° |
| 2026-05-07 19:01 | 46.94044 | 2.33137 | 34727 ft | 430 kts | 181° |
| 2026-05-07 19:01 | 46.91056 | 2.33320 | 34924 ft | 430 kts | 181° |
| 2026-05-07 19:02 | 46.85070 | 2.33597 | 35021 ft | 428 kts | 186° |
| 2026-05-07 19:02 | 46.79281 | 2.32027 | 35008 ft | 421 kts | 198° |
| 2026-05-07 19:03 | 46.73657 | 2.29763 | 34994 ft | 421 kts | 198° |
| 2026-05-07 19:03 | 46.67981 | 2.27556 | 34993 ft | 422 kts | 198° |
| 2026-05-07 19:04 | 46.62297 | 2.25385 | 34997 ft | 422 kts | 198° |
| 2026-05-07 19:04 | 46.56650 | 2.23246 | 34998 ft | 422 kts | 198° |
| 2026-05-07 19:05 | 46.50972 | 2.21084 | 34993 ft | 421 kts | 198° |
| 2026-05-07 19:05 | 46.45301 | 2.18916 | 34996 ft | 421 kts | 198° |
| 2026-05-07 19:06 | 46.39626 | 2.16755 | 34995 ft | 421 kts | 198° |
| 2026-05-07 19:06 | 46.31149 | 2.13538 | 34994 ft | 421 kts | 197° |
| 2026-05-07 19:07 | 46.25473 | 2.11395 | 35000 ft | 421 kts | 197° |
| 2026-05-07 19:07 | 46.19816 | 2.09273 | 34994 ft | 421 kts | 196° |
| 2026-05-07 19:08 | 46.13983 | 2.07983 | 34986 ft | 424 kts | 190° |
| 2026-05-07 19:08 | 46.08162 | 2.06935 | 34990 ft | 424 kts | 190° |
| 2026-05-07 19:09 | 46.02307 | 2.05860 | 34986 ft | 424 kts | 190° |
| 2026-05-07 19:09 | 45.96443 | 2.04780 | 34986 ft | 423 kts | 190° |
| 2026-05-07 19:10 | 45.90612 | 2.03704 | 34983 ft | 425 kts | 190° |
| 2026-05-07 19:10 | 45.84741 | 2.02633 | 34988 ft | 425 kts | 190° |
| 2026-05-07 19:11 | 45.78859 | 2.01554 | 34979 ft | 425 kts | 190° |
| 2026-05-07 19:11 | 45.73024 | 2.00480 | 34973 ft | 426 kts | 190° |
| 2026-05-07 19:12 | 45.67134 | 1.99411 | 34976 ft | 425 kts | 190° |
| 2026-05-07 19:12 | 45.61254 | 1.98338 | 34972 ft | 425 kts | 190° |
| 2026-05-07 19:13 | 45.55381 | 1.97271 | 34971 ft | 425 kts | 190° |
| 2026-05-07 19:13 | 45.49545 | 1.96204 | 34970 ft | 424 kts | 190° |
| 2026-05-07 19:14 | 45.43682 | 1.95150 | 34971 ft | 424 kts | 190° |
| 2026-05-07 19:14 | 45.37817 | 1.94095 | 34970 ft | 424 kts | 190° |
| 2026-05-07 19:15 | 45.31965 | 1.93036 | 34974 ft | 425 kts | 189° |
| 2026-05-07 19:15 | 45.26116 | 1.91981 | 34961 ft | 425 kts | 189° |
| 2026-05-07 19:16 | 45.20239 | 1.90925 | 34966 ft | 425 kts | 189° |
| 2026-05-07 19:16 | 45.14357 | 1.89871 | 34963 ft | 426 kts | 189° |
| 2026-05-07 19:17 | 45.08455 | 1.88816 | 34964 ft | 427 kts | 189° |
| 2026-05-07 19:17 | 45.02589 | 1.87766 | 34969 ft | 427 kts | 189° |
| 2026-05-07 19:18 | 44.96675 | 1.86709 | 34967 ft | 427 kts | 189° |
| 2026-05-07 19:18 | 44.90773 | 1.85659 | 34972 ft | 427 kts | 189° |
| 2026-05-07 19:19 | 44.84888 | 1.84618 | 34971 ft | 427 kts | 189° |
| 2026-05-07 19:19 | 44.78989 | 1.83576 | 34937 ft | 423 kts | 189° |
| 2026-05-07 19:20 | 44.76100 | 1.83067 | 34121 ft | 426 kts | 189° |
| 2026-05-07 19:20 | 44.73125 | 1.82541 | 32861 ft | 436 kts | 189° |
| 2026-05-07 19:20 | 44.70088 | 1.82006 | 31753 ft | 441 kts | 189° |
| 2026-05-07 19:20 | 44.67032 | 1.81473 | 30886 ft | 441 kts | 189° |
| 2026-05-07 19:21 | 44.64010 | 1.80944 | 30390 ft | 434 kts | 189° |
| 2026-05-07 19:21 | 44.61018 | 1.80420 | 30138 ft | 430 kts | 189° |
| 2026-05-07 19:21 | 44.58055 | 1.79897 | 30019 ft | 430 kts | 189° |
| 2026-05-07 19:21 | 44.55079 | 1.79373 | 29973 ft | 430 kts | 189° |
| 2026-05-07 19:22 | 44.49167 | 1.78336 | 29955 ft | 430 kts | 189° |
| 2026-05-07 19:22 | 44.46210 | 1.77819 | 29581 ft | 424 kts | 189° |
| 2026-05-07 19:22 | 44.43252 | 1.77299 | 28240 ft | 432 kts | 189° |
| 2026-05-07 19:23 | 44.40230 | 1.76769 | 26777 ft | 443 kts | 189° |
| 2026-05-07 19:23 | 44.37161 | 1.76232 | 25366 ft | 453 kts | 189° |
| 2026-05-07 19:23 | 44.34016 | 1.75683 | 24258 ft | 456 kts | 188° |
| 2026-05-07 19:23 | 44.30901 | 1.74961 | 23351 ft | 452 kts | 196° |
| 2026-05-07 19:24 | 44.27993 | 1.73380 | 22443 ft | 444 kts | 208° |
| 2026-05-07 19:24 | 44.25389 | 1.71099 | 21576 ft | 440 kts | 215° |
| 2026-05-07 19:24 | 44.22893 | 1.68654 | 20767 ft | 436 kts | 216° |
| 2026-05-07 19:24 | 44.20416 | 1.66229 | 19925 ft | 432 kts | 216° |
| 2026-05-07 19:25 | 44.17952 | 1.63854 | 19107 ft | 429 kts | 215° |
| 2026-05-07 19:25 | 44.15518 | 1.61529 | 18307 ft | 426 kts | 215° |
| 2026-05-07 19:25 | 44.13078 | 1.59203 | 17470 ft | 422 kts | 215° |
| 2026-05-07 19:25 | 44.10662 | 1.56897 | 16642 ft | 417 kts | 215° |
| 2026-05-07 19:26 | 44.08283 | 1.54627 | 15830 ft | 413 kts | 215° |
| 2026-05-07 19:26 | 44.05919 | 1.52366 | 15115 ft | 409 kts | 215° |
| 2026-05-07 19:26 | 44.03579 | 1.50137 | 14435 ft | 405 kts | 215° |
| 2026-05-07 19:26 | 44.01265 | 1.47937 | 13691 ft | 402 kts | 216° |
| 2026-05-07 19:27 | 43.98971 | 1.45814 | 12897 ft | 399 kts | 212° |
| 2026-05-07 19:27 | 43.96434 | 1.44403 | 12293 ft | 387 kts | 194° |
| 2026-05-07 19:27 | 43.93855 | 1.43758 | 11903 ft | 366 kts | 190° |
| 2026-05-07 19:27 | 43.91396 | 1.43243 | 11534 ft | 348 kts | 190° |
| 2026-05-07 19:28 | 43.89057 | 1.42738 | 11122 ft | 332 kts | 191° |
| 2026-05-07 19:28 | 43.86801 | 1.42229 | 10744 ft | 318 kts | 191° |
| 2026-05-07 19:28 | 43.84687 | 1.41775 | 10427 ft | 306 kts | 186° |
| 2026-05-07 19:28 | 43.82607 | 1.41939 | 10148 ft | 295 kts | 166° |
| 2026-05-07 19:29 | 43.80772 | 1.43100 | 9833 ft | 289 kts | 146° |
| 2026-05-07 19:29 | 43.79191 | 1.44794 | 9438 ft | 284 kts | 142° |
| 2026-05-07 19:29 | 43.77673 | 1.46517 | 9070 ft | 282 kts | 142° |
| 2026-05-07 19:29 | 43.76150 | 1.48219 | 8720 ft | 282 kts | 142° |
| 2026-05-07 19:30 | 43.74606 | 1.49917 | 8377 ft | 283 kts | 142° |
| 2026-05-07 19:30 | 43.73059 | 1.51603 | 8047 ft | 283 kts | 142° |
| 2026-05-07 19:30 | 43.71508 | 1.53283 | 7731 ft | 283 kts | 142° |
| 2026-05-07 19:30 | 43.69971 | 1.54940 | 7414 ft | 283 kts | 142° |
| 2026-05-07 19:31 | 43.68416 | 1.56613 | 7090 ft | 283 kts | 142° |
| 2026-05-07 19:31 | 43.66878 | 1.58266 | 6876 ft | 276 kts | 142° |
| 2026-05-07 19:31 | 43.65388 | 1.59865 | 6721 ft | 266 kts | 142° |
| 2026-05-07 19:31 | 43.63949 | 1.61408 | 6530 ft | 258 kts | 142° |
| 2026-05-07 19:32 | 43.62477 | 1.62831 | 6156 ft | 258 kts | 154° |
| 2026-05-07 19:32 | 43.60796 | 1.63430 | 5813 ft | 252 kts | 179° |
| 2026-05-07 19:32 | 43.59062 | 1.63232 | 5502 ft | 247 kts | 187° |
| 2026-05-07 19:32 | 43.57367 | 1.62904 | 5177 ft | 244 kts | 187° |
| 2026-05-07 19:33 | 43.55687 | 1.62588 | 4871 ft | 243 kts | 187° |
| 2026-05-07 19:33 | 43.54005 | 1.62286 | 4558 ft | 243 kts | 187° |
| 2026-05-07 19:33 | 43.52319 | 1.61993 | 4248 ft | 243 kts | 186° |
| 2026-05-07 19:33 | 43.50655 | 1.61709 | 4020 ft | 237 kts | 187° |
| 2026-05-07 19:34 | 43.49100 | 1.61165 | 3971 ft | 231 kts | 206° |
| 2026-05-07 19:34 | 43.47893 | 1.59865 | 3911 ft | 216 kts | 234° |
| 2026-05-07 19:34 | 43.47297 | 1.57987 | 3581 ft | 215 kts | 253° |
| 2026-05-07 19:34 | 43.46941 | 1.55980 | 3335 ft | 216 kts | 257° |
| 2026-05-07 19:35 | 43.46930 | 1.53916 | 3133 ft | 218 kts | 285° |
| 2026-05-07 19:35 | 43.47713 | 1.52155 | 2994 ft | 218 kts | 317° |
| 2026-05-07 19:35 | 43.48921 | 1.50885 | 2990 ft | 217 kts | 327° |
| 2026-05-07 19:35 | 43.50179 | 1.49774 | 3000 ft | 217 kts | 327° |
| 2026-05-07 19:36 | 43.51409 | 1.48578 | 2960 ft | 217 kts | 320° |
| 2026-05-07 19:36 | 43.52619 | 1.47315 | 2747 ft | 216 kts | 322° |
| 2026-05-07 19:36 | 43.53804 | 1.46084 | 2473 ft | 211 kts | 322° |
| 2026-05-07 19:36 | 43.54952 | 1.44893 | 2239 ft | 202 kts | 323° |
| 2026-05-07 19:37 | 43.56031 | 1.43772 | 1941 ft | 191 kts | 324° |
| 2026-05-07 19:37 | 43.57070 | 1.42694 | 1667 ft | 180 kts | 324° |
| 2026-05-07 19:37 | 43.58033 | 1.41695 | 1422 ft | 162 kts | 324° |
| 2026-05-07 19:37 | 43.58874 | 1.40823 | 1197 ft | 145 kts | 324° |
| 2026-05-07 19:38 | 43.59679 | 1.39986 | 1001 ft | 144 kts | 323° |
| 2026-05-07 19:38 | 43.60486 | 1.39154 | 801 ft | 145 kts | 324° |
| 2026-05-07 19:38 | 43.61284 | 1.38313 | 621 ft | 144 kts | 323° |
| 2026-05-07 19:38 | 43.62064 | 1.37502 | 499 ft | 132 kts | 323° |
| 2026-05-07 19:39 | 43.62642 | 1.36896 | 499 ft | 75 kts | 325° |
| 2026-05-07 19:39 | 43.62873 | 1.36664 | 499 ft | 26 kts | 324° |
| 2026-05-07 19:39 | 43.62992 | 1.36635 | 499 ft | 16 kts | 18° |
| 2026-05-07 19:39 | 43.63028 | 1.36655 | 499 ft | 7 kts | 30° |
| 2026-05-07 19:40 | 43.63074 | 1.36740 | 499 ft | 10 kts | 60° |
| 2026-05-07 19:40 | 43.63110 | 1.36812 | 499 ft | 5 kts | 56° |
| 2026-05-07 19:40 | 43.63120 | 1.36850 | 499 ft | 5 kts | 100° |
| 2026-05-07 19:40 | 43.63094 | 1.36893 | 499 ft | 7 kts | 135° |
| 2026-05-07 19:41 | 43.63061 | 1.36952 | 499 ft | 9 kts | 122° |
| 2026-05-07 19:41 | 43.63033 | 1.37035 | 499 ft | 10 kts | 108° |
| 2026-05-07 19:41 | 43.63017 | 1.37116 | 499 ft | 4 kts | 116° |
| 2026-05-07 19:41 | 43.63003 | 1.37137 | 499 ft | 2 kts | 135° |
| 2026-05-07 19:42 | 43.62996 | 1.37163 | 499 ft | 4 kts | 94° |
| 2026-05-07 19:42 | 43.63011 | 1.37200 | 499 ft | 4 kts | 53° |
| 2026-05-07 19:42 | 43.63027 | 1.37231 | 499 ft | 2 kts | 53° |
| 2026-05-07 19:42 | 43.63033 | 1.37242 | 499 ft | 0 kts | 53° |